createdAt,value
2022-11-16T00:00:18.770Z,33.42
2022-11-16T00:02:46.123Z,32.67
2022-11-16T00:05:13.390Z,29.90
2022-11-16T00:07:40.659Z,31.38
2022-11-16T00:10:08.227Z,34.38
2022-11-16T00:12:35.530Z,32.55
2022-11-16T00:15:02.907Z,34.13
2022-11-16T00:17:30.258Z,33.92
2022-11-16T00:19:57.590Z,35.30
2022-11-16T00:22:24.824Z,35.45
2022-11-16T00:24:52.001Z,35.80
2022-11-16T00:27:19.322Z,32.33
2022-11-16T00:29:46.549Z,32.20
2022-11-16T00:32:13.754Z,35.08
2022-11-16T00:34:41.132Z,34.63
2022-11-16T00:37:08.314Z,33.72
2022-11-16T00:39:35.549Z,32.92
2022-11-16T00:42:02.830Z,36.25
2022-11-16T00:44:30.071Z,35.53
2022-11-16T00:46:57.297Z,34.72
2022-11-16T00:49:24.546Z,34.83
2022-11-16T00:51:51.718Z,36.50
2022-11-16T00:54:18.955Z,35.45
2022-11-16T00:56:46.293Z,38.28
2022-11-16T00:59:13.580Z,37.25
2022-11-16T01:01:40.927Z,35.28
2022-11-16T01:04:08.311Z,36.83
2022-11-16T01:06:35.479Z,37.70
2022-11-16T01:09:02.776Z,35.50
2022-11-16T01:11:48.846Z,33.90
2022-11-16T01:14:16.252Z,34.10
2022-11-16T01:16:43.484Z,35.20
2022-11-16T01:19:10.804Z,33.33
2022-11-16T01:21:37.980Z,36.88
2022-11-16T01:24:05.382Z,40.03
2022-11-16T01:26:32.618Z,34.17
2022-11-16T01:29:00.231Z,38.88
2022-11-16T01:31:27.434Z,37.83
2022-11-16T01:33:55.207Z,38.88
2022-11-16T01:36:22.368Z,36.35
2022-11-16T01:38:50.682Z,38.78
2022-11-16T01:41:23.491Z,36.80
2022-11-16T01:44:01.121Z,35.53
2022-11-16T01:46:28.994Z,35.70
2022-11-16T01:49:10.906Z,38.45
2022-11-16T01:51:38.841Z,40.03
2022-11-16T01:54:08.069Z,38.50
2022-11-16T01:56:36.870Z,35.15
2022-11-16T01:59:07.102Z,43.10
2022-11-16T02:01:34.498Z,41.00
2022-11-16T02:04:01.741Z,40.72
2022-11-16T02:06:29.040Z,38.95
2022-11-16T02:09:26.963Z,44.42
2022-11-16T02:11:54.324Z,39.78
2022-11-16T02:14:24.537Z,43.35
2022-11-16T02:17:04.099Z,43.70
2022-11-16T02:19:34.338Z,40.38
2022-11-16T02:22:08.719Z,43.03
2022-11-16T02:24:39.113Z,42.55
2022-11-16T02:27:09.128Z,41.87
2022-11-16T02:29:42.334Z,44.15
2022-11-16T02:32:18.603Z,40.28
2022-11-16T02:34:48.691Z,41.67
2022-11-16T02:37:18.425Z,42.60
2022-11-16T02:39:47.868Z,42.60
2022-11-16T02:42:18.207Z,41.67
2022-11-16T02:44:48.028Z,47.10
2022-11-16T02:47:19.062Z,41.35
2022-11-16T02:49:48.646Z,40.85
2022-11-16T02:52:16.592Z,44.00
2022-11-16T02:54:43.883Z,43.42
2022-11-16T02:57:11.017Z,46.72
2022-11-16T02:59:43.345Z,42.80
2022-11-16T03:02:25.120Z,42.95
2022-11-16T03:05:02.217Z,45.83
2022-11-16T03:07:32.898Z,48.25
2022-11-16T03:10:00.720Z,43.22
2022-11-16T03:12:32.621Z,44.55
2022-11-16T03:15:00.506Z,49.58
2022-11-16T03:17:54.105Z,50.83
2022-11-16T03:20:24.210Z,47.50
2022-11-16T03:22:54.533Z,48.90
2022-11-16T03:25:21.945Z,43.87
2022-11-16T03:28:01.514Z,46.03
2022-11-16T03:30:30.322Z,48.38
2022-11-16T03:33:15.129Z,47.13
2022-11-16T03:35:42.252Z,48.08
2022-11-16T03:38:10.614Z,50.47
2022-11-16T03:40:38.364Z,52.10
2022-11-16T03:43:07.315Z,45.22
2022-11-16T03:45:34.635Z,54.85
2022-11-16T03:48:02.002Z,47.88
2022-11-16T03:50:29.161Z,50.95
2022-11-16T03:52:56.312Z,54.45
2022-11-16T03:55:23.498Z,57.75
2022-11-16T03:57:50.653Z,60.17
2022-11-16T04:00:17.842Z,60.53
2022-11-16T04:02:45.069Z,57.65
2022-11-16T04:05:30.720Z,56.00
2022-11-16T04:08:16.939Z,59.60
2022-11-16T04:11:04.117Z,64.88
2022-11-16T04:13:51.153Z,61.15
2022-11-16T04:16:37.302Z,59.72
2022-11-16T04:19:23.301Z,62.80
2022-11-16T04:22:11.184Z,58.78
2022-11-16T04:24:39.765Z,66.25
2022-11-16T04:27:28.767Z,64.18
2022-11-16T04:29:57.888Z,62.47
2022-11-16T04:32:43.866Z,60.00
2022-11-16T04:35:29.875Z,64.53
2022-11-16T04:37:58.301Z,62.90
2022-11-16T04:40:29.482Z,60.83
2022-11-16T04:45:43.349Z,66.03
2022-11-16T04:48:11.134Z,61.38
2022-11-16T04:50:38.894Z,59.55
2022-11-16T04:53:06.767Z,62.22
2022-11-16T04:55:34.031Z,64.95
2022-11-16T04:58:01.716Z,54.10
2022-11-16T05:00:29.589Z,60.13
2022-11-16T05:03:01.200Z,59.55
2022-11-16T05:05:29.037Z,58.35
2022-11-16T05:07:56.364Z,60.92
2022-11-16T05:10:23.577Z,58.38
2022-11-16T05:12:50.708Z,53.03
2022-11-16T05:15:19.682Z,51.53
2022-11-16T05:17:47.439Z,51.63
2022-11-16T05:20:33.238Z,53.03
2022-11-16T05:23:00.478Z,53.42
2022-11-16T05:25:31.230Z,52.45
2022-11-16T05:28:01.181Z,49.40
2022-11-16T05:30:29.666Z,48.03
2022-11-16T05:32:56.842Z,47.45
2022-11-16T05:35:24.027Z,53.70
2022-11-16T05:37:51.168Z,53.13
2022-11-16T05:40:18.366Z,54.40
2022-11-16T05:42:45.551Z,57.88
2022-11-16T05:45:15.961Z,53.55
2022-11-16T05:47:45.803Z,50.28
2022-11-16T05:50:12.995Z,46.90
2022-11-16T05:52:40.179Z,48.72
2022-11-16T05:55:07.640Z,49.30
2022-11-16T05:57:34.784Z,47.80
2022-11-16T06:00:01.910Z,44.13
2022-11-16T06:02:29.109Z,46.55
2022-11-16T06:04:56.343Z,44.13
2022-11-16T06:07:23.573Z,49.30
2022-11-16T06:09:50.805Z,43.65
2022-11-16T06:12:17.934Z,46.83
2022-11-16T06:14:45.064Z,47.05
2022-11-16T06:17:14.652Z,42.53
2022-11-16T06:19:41.922Z,46.20
2022-11-16T06:22:09.051Z,42.22
2022-11-16T06:24:36.281Z,43.97
2022-11-16T06:27:03.423Z,41.90
2022-11-16T06:29:30.560Z,43.35
2022-11-16T06:31:57.748Z,42.67
2022-11-16T06:34:24.930Z,45.10
2022-11-16T06:36:52.048Z,46.60
2022-11-16T06:39:19.226Z,45.83
2022-11-16T06:41:46.372Z,42.10
2022-11-16T06:44:13.667Z,41.42
2022-11-16T06:46:40.839Z,42.47
2022-11-16T06:49:08.020Z,44.90
2022-11-16T06:51:35.248Z,49.63
2022-11-16T06:54:02.495Z,47.10
2022-11-16T06:56:29.807Z,44.28
2022-11-16T06:58:57.311Z,43.05
2022-11-16T07:01:24.549Z,46.88
2022-11-16T07:03:51.818Z,48.65
2022-11-16T07:06:19.035Z,46.58
2022-11-16T07:08:46.702Z,43.75
2022-11-16T07:11:13.875Z,47.47
2022-11-16T07:13:41.026Z,48.47
2022-11-16T07:16:09.092Z,44.95
2022-11-16T07:18:37.390Z,49.78
2022-11-16T07:21:08.119Z,45.50
2022-11-16T07:23:35.859Z,44.60
2022-11-16T07:26:03.903Z,46.17
2022-11-16T07:28:31.264Z,46.90
2022-11-16T07:31:02.724Z,43.08
2022-11-16T07:36:01.913Z,52.22
2022-11-16T07:38:29.197Z,46.78
2022-11-16T07:40:59.798Z,47.17
2022-11-16T07:43:26.977Z,53.78
2022-11-16T07:45:55.749Z,44.80
2022-11-16T07:48:25.187Z,42.35
2022-11-16T07:50:52.317Z,38.28
2022-11-16T07:53:19.594Z,39.63
2022-11-16T07:55:52.341Z,38.45
2022-11-16T07:58:19.476Z,36.30
2022-11-16T08:00:46.668Z,36.28
2022-11-16T08:03:13.804Z,36.65
2022-11-16T08:05:40.946Z,38.63
2022-11-16T08:08:08.181Z,37.97
2022-11-16T08:10:35.400Z,28.02
2022-11-16T08:13:02.638Z,35.67
2022-11-16T08:15:29.861Z,31.77
2022-11-16T08:18:00.147Z,32.85
2022-11-16T08:20:28.635Z,33.70
2022-11-16T08:22:59.511Z,35.58
2022-11-16T08:25:26.861Z,33.10
2022-11-16T08:27:54.013Z,34.53
2022-11-16T08:30:21.252Z,32.63
2022-11-16T08:32:48.440Z,27.33
2022-11-16T08:35:15.701Z,22.83
2022-11-16T08:37:42.897Z,23.85
2022-11-16T08:40:10.338Z,17.10
2022-11-16T08:42:43.263Z,19.00
2022-11-16T08:45:11.097Z,16.63
2022-11-16T08:47:38.281Z,17.98
2022-11-16T08:50:05.583Z,18.48
2022-11-16T08:52:32.821Z,17.73
2022-11-16T08:54:59.955Z,16.48
2022-11-16T08:57:27.087Z,15.18
2022-11-16T08:59:54.348Z,16.10
2022-11-16T09:02:25.438Z,18.73
2022-11-16T09:07:21.111Z,21.70
2022-11-16T09:09:48.768Z,22.75
2022-11-16T09:12:16.142Z,23.33
2022-11-16T09:14:43.398Z,21.77
2022-11-16T09:17:10.542Z,21.45
2022-11-16T09:19:37.790Z,23.98
2022-11-16T09:22:05.332Z,23.88
2022-11-16T09:24:32.496Z,21.23
2022-11-16T09:27:01.378Z,20.23
2022-11-16T09:29:28.838Z,22.08
2022-11-16T09:31:56.492Z,23.13
2022-11-16T09:34:23.610Z,25.75
2022-11-16T09:36:50.816Z,23.60
2022-11-16T09:39:33.524Z,27.80
2022-11-16T09:42:19.312Z,26.50
2022-11-16T09:44:49.448Z,27.70
2022-11-16T09:47:21.977Z,28.27
2022-11-16T09:49:58.228Z,24.02
2022-11-16T09:52:43.980Z,40.75
2022-11-16T09:55:29.581Z,26.83
2022-11-16T09:57:58.122Z,27.48
2022-11-16T10:00:25.435Z,29.05
2022-11-16T10:03:01.536Z,34.42
2022-11-16T10:05:36.906Z,32.45
2022-11-16T10:08:25.715Z,34.38
2022-11-16T10:11:12.952Z,27.73
2022-11-16T10:14:04.164Z,29.38
2022-11-16T10:16:37.767Z,31.83
2022-11-16T10:19:20.276Z,35.13
2022-11-16T10:22:05.415Z,37.53
2022-11-16T10:24:37.289Z,33.92
2022-11-16T10:27:10.298Z,33.38
2022-11-16T10:29:43.754Z,33.35
2022-11-16T10:32:28.243Z,29.40
2022-11-16T10:34:56.822Z,28.35
2022-11-16T10:37:29.340Z,30.40
2022-11-16T10:39:56.481Z,27.92
2022-11-16T10:42:31.651Z,26.33
2022-11-16T10:45:12.164Z,23.75
2022-11-16T10:47:52.201Z,25.17
2022-11-16T10:50:34.669Z,24.15
2022-11-16T10:53:01.991Z,22.08
2022-11-16T10:55:29.206Z,25.58
2022-11-16T10:57:59.456Z,22.50
2022-11-16T11:00:41.676Z,25.92
2022-11-16T11:03:10.822Z,22.60
2022-11-16T11:05:38.732Z,27.55
2022-11-16T11:08:07.762Z,33.67
2022-11-16T11:10:42.068Z,25.08
2022-11-16T11:13:12.060Z,28.95
2022-11-16T11:15:42.740Z,29.10
2022-11-16T11:18:16.194Z,33.70
2022-11-16T11:20:53.688Z,28.98
2022-11-16T11:23:22.594Z,25.45
2022-11-16T11:25:59.922Z,24.38
2022-11-16T11:28:33.134Z,20.58
2022-11-16T11:31:00.285Z,24.67
2022-11-16T11:33:29.324Z,33.55
2022-11-16T11:36:05.157Z,36.25
2022-11-16T11:38:32.945Z,35.95
2022-11-16T11:41:01.289Z,34.70
2022-11-16T11:43:29.631Z,36.03
2022-11-16T11:45:56.737Z,35.92
2022-11-16T11:48:37.161Z,32.63
2022-11-16T11:51:12.074Z,32.33
2022-11-16T11:53:47.842Z,29.50
2022-11-16T11:56:15.328Z,32.42
2022-11-16T11:58:43.320Z,40.80
2022-11-16T12:01:29.280Z,41.42
2022-11-16T12:04:16.708Z,45.42
2022-11-16T12:06:52.309Z,36.97
2022-11-16T12:09:28.785Z,33.58
2022-11-16T12:11:55.995Z,38.33
2022-11-16T12:14:31.460Z,38.17
2022-11-16T12:17:04.672Z,39.13
2022-11-16T12:19:34.821Z,33.45
2022-11-16T12:22:01.966Z,32.47
2022-11-16T12:24:32.241Z,30.77
2022-11-16T12:27:34.949Z,26.00
2022-11-16T12:30:08.530Z,21.33
2022-11-16T12:32:58.832Z,24.35
2022-11-16T12:35:29.114Z,24.75
2022-11-16T12:38:11.267Z,21.10
2022-11-16T12:40:45.053Z,22.00
2022-11-16T12:43:17.575Z,24.35
2022-11-16T12:46:03.485Z,24.90
2022-11-16T12:48:38.949Z,32.95
2022-11-16T12:51:21.554Z,36.28
2022-11-16T12:53:51.497Z,36.00
2022-11-16T12:56:25.278Z,41.67
2022-11-16T12:58:58.608Z,24.25
2022-11-16T13:01:34.006Z,25.02
2022-11-16T13:04:05.679Z,24.58
2022-11-16T13:06:36.036Z,26.05
2022-11-16T13:09:14.331Z,24.60
2022-11-16T13:11:44.491Z,27.42
2022-11-16T13:14:14.871Z,22.75
2022-11-16T13:16:42.419Z,24.70
2022-11-16T13:19:13.054Z,23.58
2022-11-16T13:21:59.955Z,25.23
2022-11-16T13:24:30.312Z,24.60
2022-11-16T13:27:17.377Z,22.80
2022-11-16T13:29:44.599Z,23.17
2022-11-16T13:32:18.439Z,29.08
2022-11-16T13:34:46.334Z,32.10
2022-11-16T13:37:32.034Z,33.17
2022-11-16T13:39:59.206Z,26.38
2022-11-16T13:42:26.726Z,27.23
2022-11-16T13:44:54.253Z,32.88
2022-11-16T13:47:30.512Z,30.15
2022-11-16T13:50:02.108Z,22.70
2022-11-16T13:53:36.450Z,22.63
2022-11-16T13:55:36.589Z,29.65
2022-11-16T13:58:05.258Z,26.90
2022-11-16T14:00:36.707Z,22.60
2022-11-16T14:03:13.042Z,22.92
2022-11-16T14:05:43.387Z,22.88
2022-11-16T14:08:19.623Z,20.97
2022-11-16T14:10:52.702Z,29.30
2022-11-16T14:13:48.431Z,23.25
2022-11-16T14:16:15.553Z,30.30
2022-11-16T14:18:43.547Z,23.98
2022-11-16T14:21:20.223Z,21.65
2022-11-16T14:24:06.307Z,23.10
2022-11-16T14:26:45.806Z,26.83
2022-11-16T14:29:20.534Z,28.55
2022-11-16T14:31:53.885Z,27.90
2022-11-16T14:34:22.997Z,25.70
2022-11-16T14:36:50.658Z,16.17
2022-11-16T14:39:24.258Z,13.68
2022-11-16T14:41:51.919Z,8.65
2022-11-16T14:44:21.704Z,13.20
2022-11-16T14:46:49.217Z,13.05
2022-11-16T14:49:18.692Z,11.98
2022-11-16T14:51:48.344Z,11.98
2022-11-16T14:54:19.223Z,21.80
2022-11-16T14:56:59.686Z,22.40
2022-11-16T14:59:27.112Z,15.20
2022-11-16T15:01:54.410Z,13.98
2022-11-16T15:04:22.709Z,10.55
2022-11-16T15:06:51.859Z,9.68
2022-11-16T15:09:23.051Z,10.52
2022-11-16T15:12:10.044Z,14.38
2022-11-16T15:14:53.858Z,11.57
2022-11-16T15:17:22.412Z,17.45
2022-11-16T15:19:55.811Z,19.48
2022-11-16T15:22:23.620Z,18.27
2022-11-16T15:24:57.971Z,27.55
2022-11-16T15:27:37.184Z,27.83
2022-11-16T15:30:20.859Z,22.80
2022-11-16T15:32:49.084Z,23.25
2022-11-16T15:35:19.157Z,27.60
2022-11-16T15:37:46.285Z,29.88
2022-11-16T15:40:13.993Z,21.92
2022-11-16T15:42:42.245Z,24.95
2022-11-16T15:45:22.394Z,29.27
2022-11-16T15:47:52.560Z,26.73
2022-11-16T15:50:20.530Z,26.98
2022-11-16T15:52:50.320Z,20.60
2022-11-16T15:55:25.258Z,11.27
2022-11-16T15:58:00.863Z,10.95
2022-11-16T16:00:29.864Z,9.85
2022-11-16T16:03:02.009Z,11.85
2022-11-16T16:05:39.505Z,11.73
2022-11-16T16:08:07.420Z,12.73
2022-11-16T16:10:34.657Z,16.13
2022-11-16T16:13:02.688Z,18.75
2022-11-16T16:15:34.956Z,21.60
2022-11-16T16:18:02.883Z,26.27
2022-11-16T16:20:33.986Z,20.30
2022-11-16T16:23:13.612Z,18.88
2022-11-16T16:25:42.063Z,12.68
2022-11-16T16:28:12.406Z,14.45
2022-11-16T16:30:39.718Z,19.65
2022-11-16T16:33:06.853Z,23.00
2022-11-16T16:35:33.974Z,31.17
2022-11-16T16:38:01.792Z,24.13
2022-11-16T16:40:29.471Z,22.15
2022-11-16T16:42:57.970Z,12.20
2022-11-16T16:45:30.229Z,8.10
2022-11-16T16:47:57.391Z,9.43
2022-11-16T16:50:24.520Z,5.60
2022-11-16T16:52:51.708Z,9.00
2022-11-16T16:55:18.824Z,8.18
2022-11-16T16:57:45.973Z,9.07
2022-11-16T17:00:13.385Z,8.38
2022-11-16T17:02:40.598Z,9.77
2022-11-16T17:05:07.924Z,7.38
2022-11-16T17:07:35.222Z,5.93
2022-11-16T17:10:02.485Z,6.57
2022-11-16T17:12:29.677Z,5.97
2022-11-16T17:14:56.926Z,5.80
2022-11-16T17:17:27.231Z,5.47
2022-11-16T17:19:54.405Z,5.13
2022-11-16T17:22:21.591Z,4.68
2022-11-16T17:24:48.749Z,4.85
2022-11-16T17:27:15.883Z,5.60
2022-11-16T17:29:43.122Z,7.72
2022-11-16T17:32:10.256Z,7.32
2022-11-16T17:34:39.914Z,8.13
2022-11-16T17:37:07.143Z,6.90
2022-11-16T17:39:34.477Z,7.32
2022-11-16T17:42:01.624Z,8.18
2022-11-16T17:44:28.845Z,7.00
2022-11-16T17:46:55.976Z,4.95
2022-11-16T17:49:23.112Z,6.85
2022-11-16T17:51:50.327Z,5.38
2022-11-16T17:54:17.463Z,6.63
2022-11-16T17:56:44.585Z,7.00
2022-11-16T17:59:11.892Z,6.78
2022-11-16T18:01:39.408Z,7.43
2022-11-16T18:04:06.615Z,7.10
2022-11-16T18:06:35.427Z,6.38
2022-11-16T18:09:02.678Z,12.23
2022-11-16T18:11:29.900Z,9.05
2022-11-16T18:14:00.818Z,10.63
2022-11-16T18:16:29.257Z,11.10
2022-11-16T18:19:00.941Z,8.80
2022-11-16T18:21:28.126Z,8.13
2022-11-16T18:23:55.667Z,7.97
2022-11-16T18:26:24.250Z,9.77
2022-11-16T18:28:52.286Z,9.38
2022-11-16T18:31:22.677Z,12.57
2022-11-16T18:33:50.225Z,10.03
2022-11-16T18:36:17.865Z,10.40
2022-11-16T18:38:45.194Z,9.20
2022-11-16T18:41:12.364Z,8.65
2022-11-16T18:43:50.326Z,9.30
2022-11-16T18:46:18.858Z,10.80
2022-11-16T18:48:46.811Z,11.27
2022-11-16T18:51:14.865Z,10.15
2022-11-16T18:53:42.423Z,9.52
2022-11-16T18:56:11.368Z,9.88
2022-11-16T18:58:54.369Z,7.40
2022-11-16T19:01:25.823Z,9.05
2022-11-16T19:03:53.839Z,9.05
2022-11-16T19:06:21.485Z,8.93
2022-11-16T19:08:55.295Z,9.10
2022-11-16T19:11:23.756Z,7.90
2022-11-16T19:13:55.235Z,10.02
2022-11-16T19:16:22.854Z,7.97
2022-11-16T19:18:50.061Z,8.98
2022-11-16T19:21:18.681Z,8.55
2022-11-16T19:23:47.202Z,7.63
2022-11-16T19:26:15.095Z,7.40
2022-11-16T19:28:46.697Z,8.77
2022-11-16T19:31:15.496Z,9.38
2022-11-16T19:33:42.668Z,8.43
2022-11-16T19:36:11.062Z,7.60
2022-11-16T19:38:38.811Z,7.72
2022-11-16T19:41:06.646Z,7.40
2022-11-16T19:43:34.747Z,7.93
2022-11-16T19:46:03.587Z,8.75
2022-11-16T19:48:32.012Z,7.80
2022-11-16T19:51:09.173Z,7.72
2022-11-16T19:53:37.141Z,7.22
2022-11-16T19:56:05.147Z,7.43
2022-11-16T19:58:33.048Z,7.43
2022-11-16T20:01:04.077Z,7.47
2022-11-16T20:03:31.730Z,8.18
2022-11-16T20:06:06.531Z,7.25
2022-11-16T20:08:33.719Z,7.80
2022-11-16T20:11:01.054Z,6.20
2022-11-16T20:13:28.332Z,7.63
2022-11-16T20:15:55.492Z,6.75
2022-11-16T20:18:22.646Z,8.52
2022-11-16T20:20:49.870Z,8.98
2022-11-16T20:23:19.367Z,7.40
2022-11-16T20:25:46.550Z,9.18
2022-11-16T20:28:13.763Z,9.25
2022-11-16T20:30:45.644Z,9.45
2022-11-16T20:33:14.328Z,8.88
2022-11-16T20:35:41.925Z,8.75
2022-11-16T20:38:09.099Z,8.65
2022-11-16T20:40:36.316Z,8.90
2022-11-16T20:43:03.509Z,9.98
2022-11-16T20:45:32.857Z,8.05
2022-11-16T20:48:00.404Z,9.45
2022-11-16T20:50:27.592Z,8.20
2022-11-16T20:52:54.728Z,8.95
2022-11-16T20:55:21.925Z,10.20
2022-11-16T20:57:49.060Z,10.27
2022-11-16T21:00:16.622Z,9.75
2022-11-16T21:02:43.891Z,9.50
2022-11-16T21:05:11.041Z,10.40
2022-11-16T21:07:38.229Z,7.97
2022-11-16T21:10:20.785Z,9.60
2022-11-16T21:13:06.414Z,12.27
2022-11-16T21:15:33.600Z,8.40
2022-11-16T21:18:00.824Z,11.07
2022-11-16T21:20:28.723Z,11.77
2022-11-16T21:22:56.119Z,10.52
2022-11-16T21:25:23.252Z,12.43
2022-11-16T21:27:50.596Z,9.13
2022-11-16T21:30:17.854Z,10.75
2022-11-16T21:32:45.021Z,9.65
2022-11-16T21:35:12.758Z,9.02
2022-11-16T21:37:39.983Z,8.20
2022-11-16T21:40:07.423Z,10.23
2022-11-16T21:42:34.590Z,10.30
2022-11-16T21:45:01.779Z,11.27
2022-11-16T21:47:29.180Z,12.35
2022-11-16T21:50:24.873Z,9.90
2022-11-16T21:52:43.525Z,9.65
2022-11-16T21:55:10.668Z,11.05
2022-11-16T21:57:37.847Z,10.48
2022-11-16T22:00:05.350Z,10.75
2022-11-16T22:02:32.558Z,11.35
2022-11-16T22:05:18.281Z,11.98
2022-11-16T22:07:45.497Z,11.52
2022-11-16T22:10:13.441Z,12.43
2022-11-16T22:12:40.642Z,11.05
2022-11-16T22:15:08.040Z,11.40
2022-11-16T22:17:35.318Z,8.75
2022-11-16T22:20:02.594Z,10.82
2022-11-16T22:22:29.725Z,8.45
2022-11-16T22:24:56.927Z,9.38
2022-11-16T22:27:24.162Z,9.95
2022-11-16T22:29:51.309Z,10.55
2022-11-16T22:32:18.440Z,9.73
2022-11-16T22:34:45.647Z,8.70
2022-11-16T22:37:12.781Z,7.88
2022-11-16T22:39:39.961Z,9.32
2022-11-16T22:42:07.294Z,8.93
2022-11-16T22:44:34.421Z,8.00
2022-11-16T22:47:01.555Z,8.27
2022-11-16T22:49:28.752Z,8.10
2022-11-16T22:51:55.903Z,8.55
2022-11-16T22:54:28.359Z,7.78
2022-11-16T22:56:55.889Z,11.02
2022-11-16T22:59:23.005Z,7.53
2022-11-16T23:01:50.155Z,8.02
2022-11-16T23:04:17.373Z,6.28
2022-11-16T23:06:44.525Z,6.05
2022-11-16T23:09:11.655Z,6.43
2022-11-16T23:11:57.707Z,8.85
2022-11-16T23:14:43.546Z,8.02
2022-11-16T23:17:10.715Z,7.15
2022-11-16T23:19:56.437Z,7.68
2022-11-16T23:22:42.420Z,7.55
2022-11-16T23:25:30.403Z,7.22
2022-11-16T23:28:07.558Z,8.25
2022-11-16T23:30:35.383Z,8.38
2022-11-16T23:33:03.013Z,8.57
2022-11-16T23:35:30.320Z,8.27
2022-11-16T23:37:57.488Z,9.65
2022-11-16T23:40:26.151Z,9.57
2022-11-16T23:43:12.631Z,7.35
2022-11-16T23:45:40.129Z,9.10
2022-11-16T23:48:08.536Z,8.80
2022-11-16T23:50:36.162Z,6.78
2022-11-16T23:53:03.305Z,9.13
2022-11-16T23:55:32.325Z,8.32
2022-11-16T23:57:59.965Z,9.35
